GLD1779 SBVT-SBCT
Flight info
| Callsign | GLD1779 |
|---|---|
| Flight time | 1h 36m |
| Altitude | 43000 |
| Route | MABSI UZ44 ADA UZ45 RAXIT |
| Aircraft | C750/M-SDFGIRY/S |
Departure
| Time | 2026-04-28 13:19 |
|---|---|
| Airport | Eurico de Aguiar Salles International Airport (SBVT) |
Arrival
| Time | 2026-04-28 14:55 |
|---|---|
| Airport | Curitiba-Afonso Pena International Airport (SBCT) |
| Time | Latitude | Longitude | Altitude | Speed | Heading |
|---|---|---|---|---|---|
| 2026-04-28 12:58 | -20.25994 | -40.29049 | 26 ft | 0 kts | 302° |
| 2026-04-28 13:08 | -20.25999 | -40.29041 | 28 ft | 3 kts | 302° |
| 2026-04-28 13:08 | -20.26009 | -40.29024 | 28 ft | 3 kts | 302° |
| 2026-04-28 13:08 | -20.26011 | -40.29008 | 27 ft | 1 kts | 218° |
| 2026-04-28 13:09 | -20.26006 | -40.29012 | 28 ft | 1 kts | 343° |
| 2026-04-28 13:09 | -20.26003 | -40.29008 | 28 ft | 0 kts | 48° |
| 2026-04-28 13:10 | -20.26002 | -40.29007 | 28 ft | 0 kts | 48° |
| 2026-04-28 13:10 | -20.25973 | -40.28981 | 26 ft | 8 kts | 37° |
| 2026-04-28 13:10 | -20.25930 | -40.28951 | 27 ft | 6 kts | 33° |
| 2026-04-28 13:10 | -20.25895 | -40.28927 | 26 ft | 6 kts | 33° |
| 2026-04-28 13:11 | -20.25883 | -40.28919 | 26 ft | 6 kts | 31° |
| 2026-04-28 13:12 | -20.25748 | -40.28830 | 23 ft | 0 kts | 31° |
| 2026-04-28 13:13 | -20.25721 | -40.28749 | 23 ft | 0 kts | 120° |
| 2026-04-28 13:14 | -20.25732 | -40.28731 | 21 ft | 11 kts | 119° |
| 2026-04-28 13:14 | -20.25780 | -40.28650 | 20 ft | 13 kts | 123° |
| 2026-04-28 13:14 | -20.25819 | -40.28583 | 22 ft | 9 kts | 122° |
| 2026-04-28 13:15 | -20.25850 | -40.28529 | 22 ft | 10 kts | 120° |
| 2026-04-28 13:15 | -20.25878 | -40.28435 | 23 ft | 16 kts | 104° |
| 2026-04-28 13:15 | -20.25902 | -40.28322 | 23 ft | 15 kts | 103° |
| 2026-04-28 13:15 | -20.25925 | -40.28219 | 25 ft | 13 kts | 102° |
| 2026-04-28 13:16 | -20.25951 | -40.28131 | 27 ft | 11 kts | 136° |
| 2026-04-28 13:16 | -20.26020 | -40.28110 | 26 ft | 11 kts | 172° |
| 2026-04-28 13:16 | -20.26106 | -40.28099 | 26 ft | 14 kts | 171° |
| 2026-04-28 13:16 | -20.26213 | -40.28082 | 27 ft | 17 kts | 172° |
| 2026-04-28 13:17 | -20.26333 | -40.28064 | 28 ft | 18 kts | 172° |
| 2026-04-28 13:17 | -20.26461 | -40.28046 | 29 ft | 19 kts | 172° |
| 2026-04-28 13:17 | -20.26570 | -40.28029 | 30 ft | 16 kts | 171° |
| 2026-04-28 13:17 | -20.26614 | -40.27963 | 30 ft | 7 kts | 80° |
| 2026-04-28 13:18 | -20.26611 | -40.27941 | 30 ft | 10 kts | 81° |
| 2026-04-28 13:18 | -20.26567 | -40.27856 | 28 ft | 17 kts | 9° |
| 2026-04-28 13:18 | -20.26141 | -40.27915 | 26 ft | 116 kts | 352° |
| 2026-04-28 13:18 | -20.25158 | -40.28085 | 272 ft | 149 kts | 349° |
| 2026-04-28 13:19 | -20.24188 | -40.28286 | 1177 ft | 142 kts | 356° |
| 2026-04-28 13:19 | -20.23171 | -40.27940 | 1606 ft | 168 kts | 29° |
| 2026-04-28 13:19 | -20.22201 | -40.27144 | 2261 ft | 187 kts | 38° |
| 2026-04-28 13:19 | -20.21133 | -40.26206 | 2853 ft | 211 kts | 36° |
| 2026-04-28 13:20 | -20.19927 | -40.25236 | 3622 ft | 217 kts | 34° |
| 2026-04-28 13:20 | -20.18748 | -40.24295 | 4795 ft | 209 kts | 36° |
| 2026-04-28 13:20 | -20.17567 | -40.23344 | 5495 ft | 221 kts | 37° |
| 2026-04-28 13:20 | -20.16387 | -40.22249 | 6045 ft | 235 kts | 51° |
| 2026-04-28 13:21 | -20.15835 | -40.20512 | 6216 ft | 267 kts | 90° |
| 2026-04-28 13:21 | -20.16399 | -40.18689 | 7405 ft | 257 kts | 122° |
| 2026-04-28 13:21 | -20.17785 | -40.17482 | 8402 ft | 268 kts | 156° |
| 2026-04-28 13:21 | -20.19626 | -40.17129 | 9481 ft | 271 kts | 173° |
| 2026-04-28 13:22 | -20.21527 | -40.17039 | 10339 ft | 279 kts | 175° |
| 2026-04-28 13:22 | -20.23548 | -40.16880 | 10712 ft | 302 kts | 171° |
| 2026-04-28 13:22 | -20.25701 | -40.16609 | 10943 ft | 328 kts | 170° |
| 2026-04-28 13:22 | -20.28063 | -40.16321 | 11083 ft | 355 kts | 172° |
| 2026-04-28 13:23 | -20.30559 | -40.16070 | 11720 ft | 361 kts | 172° |
| 2026-04-28 13:23 | -20.33080 | -40.15813 | 12394 ft | 367 kts | 172° |
| 2026-04-28 13:23 | -20.33941 | -40.15718 | 12610 ft | 369 kts | 172° |
| 2026-04-28 13:23 | -20.38250 | -40.15229 | 13664 ft | 380 kts | 173° |
| 2026-04-28 13:24 | -20.40905 | -40.14943 | 14343 ft | 384 kts | 173° |
| 2026-04-28 13:24 | -20.43593 | -40.14828 | 14909 ft | 388 kts | 179° |
| 2026-04-28 13:24 | -20.46300 | -40.14818 | 15558 ft | 392 kts | 179° |
| 2026-04-28 13:24 | -20.49048 | -40.14777 | 16196 ft | 395 kts | 179° |
| 2026-04-28 13:25 | -20.51770 | -40.14748 | 16825 ft | 399 kts | 181° |
| 2026-04-28 13:25 | -20.54539 | -40.15322 | 17316 ft | 403 kts | 201° |
| 2026-04-28 13:25 | -20.56979 | -40.16675 | 18148 ft | 399 kts | 217° |
| 2026-04-28 13:25 | -20.59000 | -40.18701 | 18798 ft | 400 kts | 230° |
| 2026-04-28 13:26 | -20.60836 | -40.20943 | 19454 ft | 402 kts | 231° |
| 2026-04-28 13:26 | -20.62677 | -40.23212 | 20100 ft | 406 kts | 231° |
| 2026-04-28 13:26 | -20.64548 | -40.25488 | 20777 ft | 409 kts | 231° |
| 2026-04-28 13:26 | -20.66442 | -40.27777 | 21437 ft | 413 kts | 231° |
| 2026-04-28 13:27 | -20.68347 | -40.30097 | 22095 ft | 417 kts | 231° |
| 2026-04-28 13:27 | -20.70261 | -40.32439 | 22755 ft | 420 kts | 231° |
| 2026-04-28 13:27 | -20.72194 | -40.34796 | 23413 ft | 424 kts | 232° |
| 2026-04-28 13:27 | -20.74150 | -40.37177 | 23999 ft | 428 kts | 232° |
| 2026-04-28 13:28 | -20.76119 | -40.39579 | 24564 ft | 431 kts | 232° |
| 2026-04-28 13:28 | -20.78102 | -40.42001 | 25124 ft | 434 kts | 232° |
| 2026-04-28 13:28 | -20.80071 | -40.44406 | 25679 ft | 437 kts | 232° |
| 2026-04-28 13:28 | -20.82081 | -40.46860 | 26238 ft | 440 kts | 232° |
| 2026-04-28 13:29 | -20.84102 | -40.49330 | 26825 ft | 443 kts | 232° |
| 2026-04-28 13:29 | -20.86136 | -40.51818 | 27382 ft | 446 kts | 232° |
| 2026-04-28 13:29 | -20.88185 | -40.54323 | 27925 ft | 449 kts | 232° |
| 2026-04-28 13:29 | -20.90336 | -40.56775 | 28419 ft | 456 kts | 226° |
| 2026-04-28 13:30 | -20.92830 | -40.58931 | 28959 ft | 461 kts | 220° |
| 2026-04-28 13:30 | -20.95394 | -40.61008 | 29470 ft | 464 kts | 220° |
| 2026-04-28 13:30 | -20.97935 | -40.63095 | 29962 ft | 467 kts | 221° |
| 2026-04-28 13:30 | -21.00519 | -40.65224 | 30400 ft | 470 kts | 220° |
| 2026-04-28 13:31 | -21.05767 | -40.69511 | 31231 ft | 475 kts | 220° |
| 2026-04-28 13:31 | -21.08386 | -40.71656 | 31893 ft | 472 kts | 221° |
| 2026-04-28 13:31 | -21.10987 | -40.73793 | 32493 ft | 470 kts | 220° |
| 2026-04-28 13:32 | -21.13548 | -40.75895 | 33076 ft | 468 kts | 220° |
| 2026-04-28 13:32 | -21.16136 | -40.78016 | 33680 ft | 466 kts | 220° |
| 2026-04-28 13:32 | -21.18713 | -40.80133 | 34262 ft | 465 kts | 220° |
| 2026-04-28 13:32 | -21.21276 | -40.82240 | 34794 ft | 463 kts | 220° |
| 2026-04-28 13:33 | -21.23831 | -40.84341 | 35334 ft | 462 kts | 220° |
| 2026-04-28 13:33 | -21.25516 | -40.85726 | 35694 ft | 461 kts | 220° |
| 2026-04-28 13:33 | -21.28060 | -40.87818 | 36229 ft | 459 kts | 220° |
| 2026-04-28 13:33 | -21.30592 | -40.89902 | 36773 ft | 458 kts | 220° |
| 2026-04-28 13:34 | -21.33937 | -40.92657 | 37518 ft | 456 kts | 220° |
| 2026-04-28 13:34 | -21.36446 | -40.94724 | 38103 ft | 454 kts | 220° |
| 2026-04-28 13:34 | -21.38952 | -40.96790 | 38688 ft | 453 kts | 220° |
| 2026-04-28 13:34 | -21.40638 | -40.98179 | 39034 ft | 452 kts | 220° |
| 2026-04-28 13:35 | -21.43133 | -41.00234 | 39583 ft | 449 kts | 221° |
| 2026-04-28 13:35 | -21.45571 | -41.02243 | 40166 ft | 446 kts | 221° |
| 2026-04-28 13:35 | -21.48020 | -41.04265 | 40735 ft | 442 kts | 221° |
| 2026-04-28 13:35 | -21.50452 | -41.06272 | 41287 ft | 440 kts | 221° |
| 2026-04-28 13:36 | -21.52873 | -41.08271 | 41824 ft | 437 kts | 221° |
| 2026-04-28 13:36 | -21.55273 | -41.10254 | 42345 ft | 434 kts | 221° |
| 2026-04-28 13:36 | -21.57660 | -41.12226 | 42844 ft | 432 kts | 221° |
| 2026-04-28 13:36 | -21.60046 | -41.14200 | 43087 ft | 435 kts | 221° |
| 2026-04-28 13:37 | -21.64933 | -41.18246 | 43106 ft | 451 kts | 221° |
| 2026-04-28 13:37 | -21.69995 | -41.22435 | 43107 ft | 466 kts | 221° |
| 2026-04-28 13:38 | -21.75170 | -41.26733 | 43081 ft | 477 kts | 221° |
| 2026-04-28 13:38 | -21.80400 | -41.31164 | 43102 ft | 479 kts | 221° |
| 2026-04-28 13:39 | -21.85653 | -41.35579 | 43096 ft | 478 kts | 221° |
| 2026-04-28 13:39 | -21.90883 | -41.39999 | 43093 ft | 478 kts | 221° |
| 2026-04-28 13:40 | -21.96122 | -41.44422 | 43099 ft | 478 kts | 221° |
| 2026-04-28 13:40 | -22.01358 | -41.48851 | 43096 ft | 478 kts | 221° |
| 2026-04-28 13:41 | -22.06592 | -41.53279 | 43100 ft | 478 kts | 221° |
| 2026-04-28 13:41 | -22.11828 | -41.57707 | 43104 ft | 477 kts | 221° |
| 2026-04-28 13:42 | -22.17050 | -41.62132 | 43097 ft | 477 kts | 221° |
| 2026-04-28 13:42 | -22.22249 | -41.66540 | 43092 ft | 477 kts | 221° |
| 2026-04-28 13:43 | -22.27471 | -41.70972 | 43073 ft | 477 kts | 221° |
| 2026-04-28 13:43 | -22.32693 | -41.75409 | 43072 ft | 477 kts | 221° |
| 2026-04-28 13:44 | -22.38195 | -41.79468 | 43078 ft | 480 kts | 216° |
| 2026-04-28 13:44 | -22.43815 | -41.83304 | 43083 ft | 480 kts | 216° |
| 2026-04-28 13:45 | -22.49449 | -41.87174 | 43087 ft | 480 kts | 216° |
| 2026-04-28 13:45 | -22.55091 | -41.91036 | 43098 ft | 480 kts | 216° |
| 2026-04-28 13:46 | -22.60739 | -41.94918 | 43092 ft | 480 kts | 216° |
| 2026-04-28 13:46 | -22.66350 | -41.98771 | 43087 ft | 480 kts | 216° |
| 2026-04-28 13:47 | -22.71897 | -42.02765 | 43081 ft | 478 kts | 217° |
| 2026-04-28 13:47 | -22.77401 | -42.06813 | 43060 ft | 476 kts | 222° |
| 2026-04-28 13:48 | -22.81895 | -42.11970 | 43076 ft | 467 kts | 237° |
| 2026-04-28 13:48 | -22.84945 | -42.18131 | 43083 ft | 464 kts | 248° |
| 2026-04-28 13:49 | -22.87633 | -42.24429 | 43114 ft | 463 kts | 247° |
| 2026-04-28 13:49 | -22.90328 | -42.30762 | 43114 ft | 463 kts | 248° |
| 2026-04-28 13:50 | -22.93026 | -42.37113 | 43113 ft | 463 kts | 247° |
| 2026-04-28 13:50 | -22.95730 | -42.43448 | 43101 ft | 461 kts | 248° |
| 2026-04-28 13:51 | -22.98402 | -42.49793 | 43107 ft | 461 kts | 248° |
| 2026-04-28 13:51 | -23.01073 | -42.56088 | 43113 ft | 462 kts | 248° |
| 2026-04-28 13:52 | -23.03747 | -42.62424 | 43110 ft | 461 kts | 248° |
| 2026-04-28 13:52 | -23.06423 | -42.68755 | 43114 ft | 461 kts | 248° |
| 2026-04-28 13:53 | -23.09095 | -42.75095 | 43118 ft | 461 kts | 248° |
| 2026-04-28 13:53 | -23.11766 | -42.81437 | 43108 ft | 461 kts | 248° |
| 2026-04-28 13:54 | -23.14426 | -42.87765 | 43120 ft | 460 kts | 248° |
| 2026-04-28 13:54 | -23.17080 | -42.94088 | 43115 ft | 460 kts | 248° |
| 2026-04-28 13:55 | -23.19721 | -43.00377 | 43115 ft | 460 kts | 248° |
| 2026-04-28 13:55 | -23.22372 | -43.06713 | 43113 ft | 458 kts | 248° |
| 2026-04-28 13:56 | -23.25015 | -43.13031 | 43115 ft | 459 kts | 248° |
| 2026-04-28 13:56 | -23.27654 | -43.19349 | 43116 ft | 459 kts | 248° |
| 2026-04-28 13:57 | -23.30281 | -43.25668 | 43107 ft | 458 kts | 249° |
| 2026-04-28 13:57 | -23.32099 | -43.32286 | 43117 ft | 458 kts | 257° |
| 2026-04-28 13:58 | -23.33666 | -43.38953 | 43115 ft | 456 kts | 257° |
| 2026-04-28 13:58 | -23.35250 | -43.45632 | 43120 ft | 456 kts | 257° |
| 2026-04-28 13:59 | -23.36814 | -43.52320 | 43112 ft | 456 kts | 257° |
| 2026-04-28 13:59 | -23.38385 | -43.59015 | 43109 ft | 456 kts | 257° |
| 2026-04-28 14:00 | -23.39949 | -43.65714 | 43104 ft | 455 kts | 257° |
| 2026-04-28 14:00 | -23.41508 | -43.72397 | 43105 ft | 455 kts | 257° |
| 2026-04-28 14:01 | -23.43063 | -43.79086 | 43114 ft | 455 kts | 257° |
| 2026-04-28 14:01 | -23.44602 | -43.85713 | 43106 ft | 454 kts | 257° |
| 2026-04-28 14:02 | -23.46154 | -43.92409 | 43106 ft | 454 kts | 257° |
| 2026-04-28 14:02 | -23.47699 | -43.99091 | 43107 ft | 454 kts | 257° |
| 2026-04-28 14:03 | -23.49232 | -44.05736 | 43100 ft | 455 kts | 258° |
| 2026-04-28 14:03 | -23.50771 | -44.12421 | 43100 ft | 454 kts | 258° |
| 2026-04-28 14:04 | -23.52310 | -44.19118 | 43101 ft | 455 kts | 258° |
| 2026-04-28 14:04 | -23.53844 | -44.25799 | 43106 ft | 454 kts | 258° |
| 2026-04-28 14:05 | -23.55364 | -44.32436 | 43101 ft | 454 kts | 258° |
| 2026-04-28 14:05 | -23.56892 | -44.39123 | 43107 ft | 454 kts | 258° |
| 2026-04-28 14:06 | -23.58417 | -44.45808 | 43112 ft | 453 kts | 258° |
| 2026-04-28 14:06 | -23.59925 | -44.52437 | 43112 ft | 453 kts | 258° |
| 2026-04-28 14:07 | -23.61441 | -44.59111 | 43103 ft | 451 kts | 258° |
| 2026-04-28 14:07 | -23.62950 | -44.65771 | 43105 ft | 451 kts | 258° |
| 2026-04-28 14:08 | -23.64454 | -44.72422 | 43099 ft | 452 kts | 258° |
| 2026-04-28 14:08 | -23.65956 | -44.79079 | 43105 ft | 452 kts | 258° |
| 2026-04-28 14:09 | -23.67452 | -44.85724 | 43110 ft | 451 kts | 258° |
| 2026-04-28 14:09 | -23.68945 | -44.92369 | 43107 ft | 451 kts | 258° |
| 2026-04-28 14:10 | -23.70434 | -44.99009 | 43119 ft | 450 kts | 258° |
| 2026-04-28 14:10 | -23.71909 | -45.05601 | 43112 ft | 450 kts | 258° |
| 2026-04-28 14:11 | -23.73391 | -45.12240 | 43112 ft | 450 kts | 258° |
| 2026-04-28 14:11 | -23.74870 | -45.18877 | 43118 ft | 450 kts | 258° |
| 2026-04-28 14:12 | -23.76340 | -45.25491 | 43118 ft | 449 kts | 258° |
| 2026-04-28 14:12 | -23.77803 | -45.32127 | 43110 ft | 449 kts | 258° |
| 2026-04-28 14:13 | -23.79268 | -45.38763 | 43116 ft | 449 kts | 258° |
| 2026-04-28 14:13 | -23.80711 | -45.45324 | 43116 ft | 447 kts | 258° |
| 2026-04-28 14:14 | -23.82158 | -45.51904 | 43123 ft | 446 kts | 258° |
| 2026-04-28 14:14 | -23.83598 | -45.58502 | 43128 ft | 446 kts | 258° |
| 2026-04-28 14:15 | -23.85029 | -45.65030 | 43120 ft | 445 kts | 258° |
| 2026-04-28 14:15 | -23.86465 | -45.71602 | 43119 ft | 445 kts | 258° |
| 2026-04-28 14:16 | -23.87903 | -45.78187 | 43121 ft | 445 kts | 259° |
| 2026-04-28 14:16 | -23.89334 | -45.84759 | 43127 ft | 445 kts | 259° |
| 2026-04-28 14:17 | -23.90765 | -45.91343 | 43120 ft | 445 kts | 259° |
| 2026-04-28 14:17 | -23.92192 | -45.97923 | 43114 ft | 445 kts | 259° |
| 2026-04-28 14:18 | -23.93615 | -46.04504 | 43100 ft | 445 kts | 259° |
| 2026-04-28 14:18 | -23.95028 | -46.11044 | 43092 ft | 445 kts | 259° |
| 2026-04-28 14:19 | -23.96445 | -46.17623 | 43086 ft | 445 kts | 259° |
| 2026-04-28 14:19 | -23.97862 | -46.24215 | 43079 ft | 445 kts | 259° |
| 2026-04-28 14:20 | -23.99727 | -46.30704 | 43071 ft | 447 kts | 253° |
| 2026-04-28 14:20 | -24.01758 | -46.37129 | 43090 ft | 447 kts | 254° |
| 2026-04-28 14:21 | -24.03466 | -46.42470 | 43091 ft | 448 kts | 254° |
| 2026-04-28 14:21 | -24.05512 | -46.48893 | 43102 ft | 447 kts | 254° |
| 2026-04-28 14:22 | -24.07555 | -46.55328 | 43112 ft | 447 kts | 254° |
| 2026-04-28 14:22 | -24.09601 | -46.61771 | 43127 ft | 447 kts | 254° |
| 2026-04-28 14:23 | -24.11629 | -46.68171 | 43131 ft | 447 kts | 254° |
| 2026-04-28 14:23 | -24.13664 | -46.74603 | 43131 ft | 448 kts | 254° |
| 2026-04-28 14:24 | -24.15703 | -46.81060 | 43132 ft | 447 kts | 254° |
| 2026-04-28 14:24 | -24.17732 | -46.87504 | 43133 ft | 447 kts | 254° |
| 2026-04-28 14:25 | -24.19758 | -46.93950 | 43128 ft | 447 kts | 254° |
| 2026-04-28 14:25 | -24.21769 | -47.00353 | 43126 ft | 447 kts | 254° |
| 2026-04-28 14:26 | -24.23790 | -47.06801 | 43129 ft | 447 kts | 255° |
| 2026-04-28 14:26 | -24.25809 | -47.13251 | 43126 ft | 447 kts | 255° |
| 2026-04-28 14:27 | -24.27717 | -47.19723 | 43127 ft | 446 kts | 256° |
| 2026-04-28 14:27 | -24.29614 | -47.26195 | 43127 ft | 446 kts | 256° |
| 2026-04-28 14:28 | -24.31469 | -47.32568 | 42449 ft | 425 kts | 256° |
| 2026-04-28 14:28 | -24.32354 | -47.35606 | 41902 ft | 411 kts | 256° |
| 2026-04-28 14:28 | -24.33208 | -47.38544 | 41370 ft | 399 kts | 257° |
| 2026-04-28 14:29 | -24.34040 | -47.41424 | 40851 ft | 394 kts | 256° |
| 2026-04-28 14:29 | -24.34867 | -47.44281 | 40339 ft | 394 kts | 256° |
| 2026-04-28 14:29 | -24.35703 | -47.47163 | 39815 ft | 398 kts | 256° |
| 2026-04-28 14:29 | -24.36544 | -47.50064 | 39289 ft | 400 kts | 256° |
| 2026-04-28 14:30 | -24.37387 | -47.52974 | 38769 ft | 401 kts | 256° |
| 2026-04-28 14:30 | -24.38230 | -47.55895 | 38204 ft | 402 kts | 256° |
| 2026-04-28 14:30 | -24.39078 | -47.58832 | 37665 ft | 406 kts | 256° |
| 2026-04-28 14:30 | -24.39934 | -47.61794 | 37130 ft | 408 kts | 257° |
| 2026-04-28 14:31 | -24.40847 | -47.64749 | 36583 ft | 412 kts | 253° |
| 2026-04-28 14:31 | -24.42083 | -47.67571 | 36043 ft | 420 kts | 246° |
| 2026-04-28 14:31 | -24.43693 | -47.70283 | 35492 ft | 428 kts | 239° |
| 2026-04-28 14:31 | -24.45658 | -47.72789 | 34924 ft | 438 kts | 232° |
| 2026-04-28 14:32 | -24.47901 | -47.75092 | 34354 ft | 444 kts | 229° |
| 2026-04-28 14:32 | -24.50174 | -47.77398 | 33736 ft | 446 kts | 230° |
| 2026-04-28 14:32 | -24.52446 | -47.79730 | 33149 ft | 449 kts | 230° |
| 2026-04-28 14:32 | -24.54735 | -47.82072 | 32550 ft | 450 kts | 229° |
| 2026-04-28 14:33 | -24.57040 | -47.84414 | 31956 ft | 454 kts | 229° |
| 2026-04-28 14:33 | -24.59361 | -47.86780 | 31350 ft | 456 kts | 229° |
| 2026-04-28 14:33 | -24.61699 | -47.89173 | 30754 ft | 461 kts | 229° |
| 2026-04-28 14:33 | -24.64041 | -47.91569 | 30148 ft | 458 kts | 229° |
| 2026-04-28 14:34 | -24.68654 | -47.96275 | 28899 ft | 448 kts | 229° |
| 2026-04-28 14:34 | -24.70932 | -47.98616 | 28324 ft | 447 kts | 229° |
| 2026-04-28 14:34 | -24.73197 | -48.00939 | 27739 ft | 443 kts | 229° |
| 2026-04-28 14:35 | -24.75448 | -48.03240 | 27165 ft | 438 kts | 229° |
| 2026-04-28 14:35 | -24.77667 | -48.05511 | 26586 ft | 434 kts | 229° |
| 2026-04-28 14:35 | -24.79868 | -48.07776 | 26021 ft | 432 kts | 229° |
| 2026-04-28 14:35 | -24.82026 | -48.09994 | 25449 ft | 428 kts | 229° |
| 2026-04-28 14:36 | -24.84196 | -48.12216 | 24904 ft | 422 kts | 229° |
| 2026-04-28 14:36 | -24.86343 | -48.14417 | 24347 ft | 421 kts | 229° |
| 2026-04-28 14:36 | -24.88477 | -48.16619 | 23795 ft | 419 kts | 229° |
| 2026-04-28 14:36 | -24.90594 | -48.18798 | 23195 ft | 416 kts | 229° |
| 2026-04-28 14:37 | -24.92698 | -48.20958 | 22649 ft | 408 kts | 229° |
| 2026-04-28 14:37 | -24.94777 | -48.23096 | 22116 ft | 408 kts | 229° |
| 2026-04-28 14:37 | -24.96827 | -48.25224 | 21573 ft | 402 kts | 230° |
| 2026-04-28 14:37 | -24.98514 | -48.27620 | 21030 ft | 390 kts | 244° |
| 2026-04-28 14:38 | -24.99735 | -48.30260 | 20535 ft | 386 kts | 248° |
| 2026-04-28 14:38 | -25.00907 | -48.32908 | 20050 ft | 383 kts | 248° |
| 2026-04-28 14:38 | -25.02091 | -48.35554 | 19546 ft | 380 kts | 249° |
| 2026-04-28 14:38 | -25.03244 | -48.38127 | 19047 ft | 378 kts | 248° |
| 2026-04-28 14:39 | -25.04412 | -48.40713 | 18548 ft | 376 kts | 248° |
| 2026-04-28 14:39 | -25.05567 | -48.43290 | 18018 ft | 373 kts | 248° |
| 2026-04-28 14:39 | -25.06709 | -48.45854 | 17524 ft | 371 kts | 248° |
| 2026-04-28 14:39 | -25.07848 | -48.48400 | 17041 ft | 369 kts | 248° |
| 2026-04-28 14:40 | -25.08986 | -48.50925 | 16532 ft | 367 kts | 248° |
| 2026-04-28 14:40 | -25.09733 | -48.52589 | 16252 ft | 363 kts | 248° |
| 2026-04-28 14:40 | -25.11229 | -48.55939 | 15595 ft | 362 kts | 248° |
| 2026-04-28 14:40 | -25.12328 | -48.58434 | 15124 ft | 360 kts | 248° |
| 2026-04-28 14:41 | -25.13431 | -48.60896 | 14646 ft | 357 kts | 248° |
| 2026-04-28 14:41 | -25.14530 | -48.63335 | 14190 ft | 347 kts | 248° |
| 2026-04-28 14:41 | -25.15568 | -48.65644 | 13719 ft | 325 kts | 248° |
| 2026-04-28 14:41 | -25.16521 | -48.67799 | 13282 ft | 307 kts | 249° |
| 2026-04-28 14:42 | -25.17428 | -48.69864 | 12883 ft | 290 kts | 249° |
| 2026-04-28 14:42 | -25.18291 | -48.71814 | 12511 ft | 277 kts | 249° |
| 2026-04-28 14:42 | -25.19129 | -48.73717 | 12144 ft | 274 kts | 249° |
| 2026-04-28 14:42 | -25.19959 | -48.75600 | 11810 ft | 272 kts | 249° |
| 2026-04-28 14:43 | -25.20783 | -48.77471 | 11460 ft | 270 kts | 250° |
| 2026-04-28 14:43 | -25.21479 | -48.79385 | 11119 ft | 265 kts | 262° |
| 2026-04-28 14:43 | -25.21644 | -48.81372 | 11170 ft | 259 kts | 270° |
| 2026-04-28 14:43 | -25.21767 | -48.83374 | 11173 ft | 261 kts | 270° |
| 2026-04-28 14:44 | -25.21892 | -48.85383 | 11174 ft | 264 kts | 270° |
| 2026-04-28 14:44 | -25.22011 | -48.87409 | 11174 ft | 263 kts | 270° |
| 2026-04-28 14:44 | -25.22125 | -48.89428 | 11171 ft | 268 kts | 270° |
| 2026-04-28 14:44 | -25.22247 | -48.91500 | 11172 ft | 267 kts | 270° |
| 2026-04-28 14:45 | -25.22366 | -48.93527 | 11171 ft | 266 kts | 270° |
| 2026-04-28 14:45 | -25.22484 | -48.95572 | 11102 ft | 267 kts | 270° |
| 2026-04-28 14:45 | -25.22617 | -48.97642 | 10920 ft | 272 kts | 268° |
| 2026-04-28 14:45 | -25.23210 | -48.99640 | 10679 ft | 275 kts | 250° |
| 2026-04-28 14:46 | -25.24034 | -49.01538 | 10489 ft | 274 kts | 249° |
| 2026-04-28 14:46 | -25.24833 | -49.03448 | 10248 ft | 272 kts | 250° |
| 2026-04-28 14:46 | -25.25609 | -49.05363 | 9976 ft | 272 kts | 250° |
| 2026-04-28 14:46 | -25.26409 | -49.07274 | 9724 ft | 275 kts | 249° |
| 2026-04-28 14:47 | -25.27221 | -49.09193 | 9499 ft | 274 kts | 249° |
| 2026-04-28 14:47 | -25.28009 | -49.11079 | 9263 ft | 274 kts | 250° |
| 2026-04-28 14:47 | -25.28804 | -49.12996 | 9022 ft | 274 kts | 250° |
| 2026-04-28 14:47 | -25.29600 | -49.14905 | 8781 ft | 272 kts | 250° |
| 2026-04-28 14:48 | -25.30394 | -49.16807 | 8544 ft | 273 kts | 250° |
| 2026-04-28 14:48 | -25.31190 | -49.18721 | 8303 ft | 274 kts | 249° |
| 2026-04-28 14:48 | -25.31984 | -49.20627 | 8091 ft | 272 kts | 250° |
| 2026-04-28 14:48 | -25.32774 | -49.22523 | 7864 ft | 263 kts | 250° |
| 2026-04-28 14:49 | -25.33694 | -49.24166 | 7601 ft | 248 kts | 232° |
| 2026-04-28 14:49 | -25.34937 | -49.25470 | 7712 ft | 249 kts | 227° |
| 2026-04-28 14:49 | -25.36127 | -49.26740 | 7692 ft | 223 kts | 229° |
| 2026-04-28 14:49 | -25.37173 | -49.27866 | 7693 ft | 203 kts | 230° |
| 2026-04-28 14:50 | -25.38186 | -49.28960 | 7571 ft | 204 kts | 230° |
| 2026-04-28 14:50 | -25.39255 | -49.29969 | 7468 ft | 204 kts | 214° |
| 2026-04-28 14:50 | -25.40651 | -49.30285 | 7401 ft | 208 kts | 178° |
| 2026-04-28 14:50 | -25.41915 | -49.29769 | 7087 ft | 182 kts | 142° |
| 2026-04-28 14:51 | -25.42771 | -49.28856 | 6842 ft | 161 kts | 129° |
| 2026-04-28 14:51 | -25.43538 | -49.28012 | 6580 ft | 153 kts | 131° |
| 2026-04-28 14:51 | -25.44285 | -49.27206 | 6269 ft | 149 kts | 130° |
| 2026-04-28 14:51 | -25.45008 | -49.26395 | 5909 ft | 149 kts | 129° |
| 2026-04-28 14:52 | -25.45768 | -49.25534 | 5156 ft | 162 kts | 129° |
| 2026-04-28 14:52 | -25.46553 | -49.24652 | 4418 ft | 159 kts | 131° |
| 2026-04-28 14:52 | -25.47261 | -49.23870 | 4277 ft | 128 kts | 131° |
| 2026-04-28 14:52 | -25.47890 | -49.23171 | 4147 ft | 127 kts | 129° |
| 2026-04-28 14:53 | -25.48499 | -49.22480 | 3975 ft | 123 kts | 130° |
| 2026-04-28 14:53 | -25.49096 | -49.21805 | 3813 ft | 122 kts | 131° |
| 2026-04-28 14:53 | -25.49691 | -49.21135 | 3625 ft | 121 kts | 131° |
| 2026-04-28 14:53 | -25.50273 | -49.20482 | 3464 ft | 119 kts | 132° |
| 2026-04-28 14:54 | -25.50860 | -49.19815 | 3327 ft | 120 kts | 131° |
| 2026-04-28 14:54 | -25.51440 | -49.19159 | 3195 ft | 118 kts | 133° |
| 2026-04-28 14:54 | -25.52001 | -49.18524 | 3055 ft | 113 kts | 133° |
| 2026-04-28 14:54 | -25.52533 | -49.17927 | 2990 ft | 99 kts | 135° |
| 2026-04-28 14:55 | -25.52854 | -49.17567 | 2984 ft | 43 kts | 134° |
| 2026-04-28 14:55 | -25.53016 | -49.17390 | 2986 ft | 23 kts | 134° |
| 2026-04-28 14:55 | -25.53104 | -49.17295 | 2985 ft | 16 kts | 141° |
| 2026-04-28 14:55 | -25.53173 | -49.17311 | 2984 ft | 0 kts | 225° |
| 2026-04-28 14:56 | -25.53178 | -49.17316 | 2984 ft | 1 kts | 225° |
| 2026-04-28 14:56 | -25.53209 | -49.17361 | 2984 ft | 11 kts | 252° |
| 2026-04-28 14:56 | -25.53185 | -49.17426 | 2984 ft | 8 kts | 317° |
| 2026-04-28 14:57 | -25.53145 | -49.17468 | 2984 ft | 7 kts | 316° |
| 2026-04-28 14:57 | -25.53124 | -49.17493 | 2985 ft | 6 kts | 315° |
| 2026-04-28 14:57 | -25.53081 | -49.17544 | 2985 ft | 8 kts | 298° |
| 2026-04-28 14:57 | -25.53103 | -49.17582 | 2985 ft | 6 kts | 231° |
| 2026-04-28 14:58 | -25.53107 | -49.17586 | 2985 ft | 0 kts | 231° |